sensor_id;sensor_type;location;lat;lon;timestamp;P1;durP1;ratioP1;P2;durP2;ratioP2
20375;SDS011;10347;51.828;6.466;2022-10-16T00:01:20;2.95;;;2.58;;
20375;SDS011;10347;51.828;6.466;2022-10-16T00:03:48;2.20;;;2.00;;
20375;SDS011;10347;51.828;6.466;2022-10-16T00:06:15;2.42;;;2.20;;
20375;SDS011;10347;51.828;6.466;2022-10-16T00:08:42;4.78;;;2.30;;
20375;SDS011;10347;51.828;6.466;2022-10-16T00:11:09;3.53;;;2.33;;
20375;SDS011;10347;51.828;6.466;2022-10-16T00:13:35;2.50;;;2.28;;
20375;SDS011;10347;51.828;6.466;2022-10-16T00:16:02;5.03;;;2.45;;
20375;SDS011;10347;51.828;6.466;2022-10-16T00:18:28;2.78;;;2.13;;
20375;SDS011;10347;51.828;6.466;2022-10-16T00:20:55;4.32;;;2.38;;
20375;SDS011;10347;51.828;6.466;2022-10-16T00:23:25;2.78;;;2.15;;
20375;SDS011;10347;51.828;6.466;2022-10-16T00:25:55;3.30;;;2.30;;
20375;SDS011;10347;51.828;6.466;2022-10-16T00:28:22;2.47;;;2.17;;
20375;SDS011;10347;51.828;6.466;2022-10-16T00:30:48;4.15;;;2.40;;
20375;SDS011;10347;51.828;6.466;2022-10-16T00:33:13;2.90;;;2.17;;
20375;SDS011;10347;51.828;6.466;2022-10-16T00:35:39;3.90;;;2.10;;
20375;SDS011;10347;51.828;6.466;2022-10-16T00:38:04;3.40;;;2.30;;
20375;SDS011;10347;51.828;6.466;2022-10-16T00:40:30;3.28;;;2.35;;
20375;SDS011;10347;51.828;6.466;2022-10-16T00:42:56;2.20;;;2.00;;
20375;SDS011;10347;51.828;6.466;2022-10-16T00:45:22;3.38;;;2.30;;
20375;SDS011;10347;51.828;6.466;2022-10-16T00:47:48;4.38;;;2.40;;
20375;SDS011;10347;51.828;6.466;2022-10-16T00:50:18;4.80;;;2.65;;
20375;SDS011;10347;51.828;6.466;2022-10-16T00:52:54;2.75;;;2.10;;
20375;SDS011;10347;51.828;6.466;2022-10-16T00:55:22;5.13;;;2.50;;
20375;SDS011;10347;51.828;6.466;2022-10-16T00:57:48;2.78;;;2.30;;
20375;SDS011;10347;51.828;6.466;2022-10-16T01:00:17;3.38;;;2.35;;
20375;SDS011;10347;51.828;6.466;2022-10-16T01:02:51;8.48;;;2.40;;
20375;SDS011;10347;51.828;6.466;2022-10-16T01:05:42;3.10;;;2.42;;
20375;SDS011;10347;51.828;6.466;2022-10-16T01:08:17;2.17;;;2.08;;
20375;SDS011;10347;51.828;6.466;2022-10-16T01:10:52;3.58;;;2.00;;
20375;SDS011;10347;51.828;6.466;2022-10-16T01:13:31;2.38;;;2.17;;
20375;SDS011;10347;51.828;6.466;2022-10-16T01:18:34;3.70;;;2.55;;
20375;SDS011;10347;51.828;6.466;2022-10-16T01:21:14;2.50;;;2.30;;
20375;SDS011;10347;51.828;6.466;2022-10-16T01:23:51;3.30;;;2.22;;
20375;SDS011;10347;51.828;6.466;2022-10-16T01:40:22;2.15;;;1.95;;
20375;SDS011;10347;51.828;6.466;2022-10-16T01:42:59;3.30;;;2.15;;
20375;SDS011;10347;51.828;6.466;2022-10-16T01:45:45;2.60;;;2.30;;
20375;SDS011;10347;51.828;6.466;2022-10-16T01:48:13;4.53;;;2.10;;
20375;SDS011;10347;51.828;6.466;2022-10-16T01:50:44;2.95;;;2.35;;
20375;SDS011;10347;51.828;6.466;2022-10-16T01:53:13;3.33;;;2.28;;
20375;SDS011;10347;51.828;6.466;2022-10-16T01:55:41;2.25;;;2.05;;
20375;SDS011;10347;51.828;6.466;2022-10-16T01:58:11;2.70;;;2.25;;
20375;SDS011;10347;51.828;6.466;2022-10-16T02:00:39;2.25;;;2.05;;
20375;SDS011;10347;51.828;6.466;2022-10-16T02:03:08;3.63;;;1.95;;
20375;SDS011;10347;51.828;6.466;2022-10-16T02:05:46;4.10;;;2.70;;
20375;SDS011;10347;51.828;6.466;2022-10-16T02:08:15;2.20;;;2.08;;
20375;SDS011;10347;51.828;6.466;2022-10-16T02:10:41;4.50;;;2.00;;
20375;SDS011;10347;51.828;6.466;2022-10-16T02:15:38;2.40;;;2.20;;
20375;SDS011;10347;51.828;6.466;2022-10-16T02:18:04;2.13;;;1.92;;
20375;SDS011;10347;51.828;6.466;2022-10-16T02:21:15;2.33;;;2.03;;
20375;SDS011;10347;51.828;6.466;2022-10-16T02:23:35;2.08;;;1.88;;
20375;SDS011;10347;51.828;6.466;2022-10-16T02:26:01;3.25;;;1.98;;
20375;SDS011;10347;51.828;6.466;2022-10-16T02:28:34;4.63;;;1.88;;
20375;SDS011;10347;51.828;6.466;2022-10-16T02:31:08;2.72;;;1.90;;
20375;SDS011;10347;51.828;6.466;2022-10-16T02:33:36;3.28;;;2.00;;
20375;SDS011;10347;51.828;6.466;2022-10-16T02:36:05;3.45;;;1.73;;
20375;SDS011;10347;51.828;6.466;2022-10-16T02:38:31;5.82;;;1.80;;
20375;SDS011;10347;51.828;6.466;2022-10-16T02:40:57;4.63;;;2.13;;
20375;SDS011;10347;51.828;6.466;2022-10-16T02:43:24;1.65;;;1.52;;
20375;SDS011;10347;51.828;6.466;2022-10-16T02:45:50;2.85;;;2.22;;
20375;SDS011;10347;51.828;6.466;2022-10-16T02:48:16;2.47;;;1.77;;
20375;SDS011;10347;51.828;6.466;2022-10-16T02:50:41;1.85;;;1.70;;
20375;SDS011;10347;51.828;6.466;2022-10-16T02:53:07;1.92;;;1.73;;
20375;SDS011;10347;51.828;6.466;2022-10-16T02:55:33;2.78;;;1.70;;
20375;SDS011;10347;51.828;6.466;2022-10-16T02:57:58;1.70;;;1.52;;
20375;SDS011;10347;51.828;6.466;2022-10-16T03:00:24;1.75;;;1.65;;
20375;SDS011;10347;51.828;6.466;2022-10-16T03:02:50;1.30;;;1.30;;
20375;SDS011;10347;51.828;6.466;2022-10-16T03:05:15;1.42;;;1.30;;
20375;SDS011;10347;51.828;6.466;2022-10-16T03:07:41;1.63;;;1.50;;
20375;SDS011;10347;51.828;6.466;2022-10-16T03:10:06;2.45;;;1.52;;
20375;SDS011;10347;51.828;6.466;2022-10-16T03:12:32;1.52;;;1.42;;
20375;SDS011;10347;51.828;6.466;2022-10-16T03:14:58;1.85;;;1.52;;
20375;SDS011;10347;51.828;6.466;2022-10-16T03:17:24;3.33;;;1.88;;
20375;SDS011;10347;51.828;6.466;2022-10-16T03:19:50;1.90;;;1.80;;
20375;SDS011;10347;51.828;6.466;2022-10-16T03:22:15;2.60;;;1.63;;
20375;SDS011;10347;51.828;6.466;2022-10-16T03:24:41;1.52;;;1.40;;
20375;SDS011;10347;51.828;6.466;2022-10-16T03:27:06;4.75;;;1.90;;
20375;SDS011;10347;51.828;6.466;2022-10-16T03:29:32;3.25;;;1.60;;
20375;SDS011;10347;51.828;6.466;2022-10-16T03:31:57;1.92;;;1.30;;
20375;SDS011;10347;51.828;6.466;2022-10-16T03:34:23;2.08;;;1.63;;
20375;SDS011;10347;51.828;6.466;2022-10-16T03:36:49;1.60;;;1.50;;
20375;SDS011;10347;51.828;6.466;2022-10-16T03:39:15;1.48;;;1.38;;
20375;SDS011;10347;51.828;6.466;2022-10-16T03:41:40;1.95;;;1.70;;
20375;SDS011;10347;51.828;6.466;2022-10-16T03:44:06;2.13;;;1.88;;
20375;SDS011;10347;51.828;6.466;2022-10-16T03:46:32;2.28;;;1.52;;
20375;SDS011;10347;51.828;6.466;2022-10-16T03:48:57;1.65;;;1.52;;
20375;SDS011;10347;51.828;6.466;2022-10-16T03:51:23;1.40;;;1.40;;
20375;SDS011;10347;51.828;6.466;2022-10-16T03:53:48;2.13;;;1.65;;
20375;SDS011;10347;51.828;6.466;2022-10-16T03:56:14;1.70;;;1.60;;
20375;SDS011;10347;51.828;6.466;2022-10-16T03:58:39;1.65;;;1.55;;
20375;SDS011;10347;51.828;6.466;2022-10-16T04:01:05;1.40;;;1.40;;
20375;SDS011;10347;51.828;6.466;2022-10-16T04:03:30;2.67;;;1.63;;
20375;SDS011;10347;51.828;6.466;2022-10-16T04:05:56;2.55;;;1.60;;
20375;SDS011;10347;51.828;6.466;2022-10-16T04:08:22;2.05;;;1.40;;
20375;SDS011;10347;51.828;6.466;2022-10-16T04:10:47;2.05;;;1.50;;
20375;SDS011;10347;51.828;6.466;2022-10-16T04:13:13;1.52;;;1.40;;
20375;SDS011;10347;51.828;6.466;2022-10-16T04:15:39;1.60;;;1.40;;
20375;SDS011;10347;51.828;6.466;2022-10-16T04:18:04;2.65;;;1.40;;
20375;SDS011;10347;51.828;6.466;2022-10-16T04:20:31;2.17;;;1.60;;
20375;SDS011;10347;51.828;6.466;2022-10-16T04:22:57;1.98;;;1.20;;
20375;SDS011;10347;51.828;6.466;2022-10-16T04:25:22;2.00;;;1.30;;
20375;SDS011;10347;51.828;6.466;2022-10-16T04:27:48;1.50;;;1.40;;
20375;SDS011;10347;51.828;6.466;2022-10-16T04:30:13;2.78;;;1.50;;
20375;SDS011;10347;51.828;6.466;2022-10-16T04:32:39;1.48;;;1.38;;
20375;SDS011;10347;51.828;6.466;2022-10-16T04:35:05;1.50;;;1.40;;
20375;SDS011;10347;51.828;6.466;2022-10-16T04:37:31;1.83;;;1.48;;
20375;SDS011;10347;51.828;6.466;2022-10-16T04:39:57;1.50;;;1.40;;
20375;SDS011;10347;51.828;6.466;2022-10-16T04:42:22;1.05;;;1.05;;
20375;SDS011;10347;51.828;6.466;2022-10-16T04:44:48;1.35;;;1.30;;
20375;SDS011;10347;51.828;6.466;2022-10-16T04:47:14;1.40;;;1.30;;
20375;SDS011;10347;51.828;6.466;2022-10-16T04:49:39;1.20;;;1.08;;
20375;SDS011;10347;51.828;6.466;2022-10-16T04:52:05;1.30;;;1.20;;
20375;SDS011;10347;51.828;6.466;2022-10-16T04:54:30;1.55;;;1.35;;
20375;SDS011;10347;51.828;6.466;2022-10-16T04:56:56;1.52;;;1.13;;
20375;SDS011;10347;51.828;6.466;2022-10-16T04:59:22;1.52;;;0.90;;
20375;SDS011;10347;51.828;6.466;2022-10-16T05:01:48;1.40;;;1.30;;
20375;SDS011;10347;51.828;6.466;2022-10-16T05:04:14;1.73;;;1.63;;
20375;SDS011;10347;51.828;6.466;2022-10-16T05:06:40;2.28;;;1.23;;
20375;SDS011;10347;51.828;6.466;2022-10-16T05:09:06;1.27;;;1.10;;
20375;SDS011;10347;51.828;6.466;2022-10-16T05:11:32;1.30;;;1.20;;
20375;SDS011;10347;51.828;6.466;2022-10-16T05:13:58;1.33;;;1.30;;
20375;SDS011;10347;51.828;6.466;2022-10-16T05:16:24;2.40;;;1.20;;
20375;SDS011;10347;51.828;6.466;2022-10-16T05:18:53;7.15;;;1.50;;
20375;SDS011;10347;51.828;6.466;2022-10-16T05:21:19;1.38;;;1.23;;
20375;SDS011;10347;51.828;6.466;2022-10-16T05:23:45;3.20;;;1.40;;
20375;SDS011;10347;51.828;6.466;2022-10-16T05:26:11;2.15;;;0.93;;
20375;SDS011;10347;51.828;6.466;2022-10-16T05:28:36;1.98;;;1.30;;
20375;SDS011;10347;51.828;6.466;2022-10-16T05:31:05;1.75;;;1.20;;
20375;SDS011;10347;51.828;6.466;2022-10-16T05:33:32;1.40;;;1.30;;
20375;SDS011;10347;51.828;6.466;2022-10-16T05:36:16;3.50;;;1.15;;
20375;SDS011;10347;51.828;6.466;2022-10-16T05:38:43;1.30;;;1.20;;
20375;SDS011;10347;51.828;6.466;2022-10-16T05:41:09;1.40;;;1.30;;
20375;SDS011;10347;51.828;6.466;2022-10-16T05:43:34;3.05;;;1.45;;
20375;SDS011;10347;51.828;6.466;2022-10-16T05:46:01;1.38;;;1.27;;
20375;SDS011;10347;51.828;6.466;2022-10-16T05:48:28;1.25;;;1.20;;
20375;SDS011;10347;51.828;6.466;2022-10-16T05:50:58;1.00;;;1.00;;
20375;SDS011;10347;51.828;6.466;2022-10-16T05:53:28;2.65;;;1.35;;
20375;SDS011;10347;51.828;6.466;2022-10-16T05:55:55;1.40;;;1.30;;
20375;SDS011;10347;51.828;6.466;2022-10-16T05:58:22;1.17;;;1.05;;
20375;SDS011;10347;51.828;6.466;2022-10-16T06:00:58;1.40;;;1.30;;
20375;SDS011;10347;51.828;6.466;2022-10-16T06:03:25;1.10;;;1.00;;
20375;SDS011;10347;51.828;6.466;2022-10-16T06:05:51;0.90;;;0.90;;
20375;SDS011;10347;51.828;6.466;2022-10-16T06:08:17;1.35;;;1.25;;
20375;SDS011;10347;51.828;6.466;2022-10-16T06:10:44;3.40;;;1.48;;
20375;SDS011;10347;51.828;6.466;2022-10-16T06:13:10;3.50;;;1.15;;
20375;SDS011;10347;51.828;6.466;2022-10-16T06:15:37;1.33;;;1.20;;
20375;SDS011;10347;51.828;6.466;2022-10-16T06:18:04;1.27;;;1.17;;
20375;SDS011;10347;51.828;6.466;2022-10-16T06:20:30;2.00;;;1.52;;
20375;SDS011;10347;51.828;6.466;2022-10-16T06:22:56;1.45;;;1.17;;
20375;SDS011;10347;51.828;6.466;2022-10-16T06:25:22;2.83;;;1.30;;
20375;SDS011;10347;51.828;6.466;2022-10-16T06:27:48;4.00;;;1.23;;
20375;SDS011;10347;51.828;6.466;2022-10-16T06:30:13;1.02;;;1.00;;
20375;SDS011;10347;51.828;6.466;2022-10-16T06:32:39;1.65;;;1.52;;
20375;SDS011;10347;51.828;6.466;2022-10-16T06:35:04;1.95;;;1.30;;
20375;SDS011;10347;51.828;6.466;2022-10-16T06:37:30;1.50;;;1.40;;
20375;SDS011;10347;51.828;6.466;2022-10-16T06:39:56;1.55;;;1.30;;
20375;SDS011;10347;51.828;6.466;2022-10-16T06:42:21;2.53;;;1.50;;
20375;SDS011;10347;51.828;6.466;2022-10-16T06:44:47;1.50;;;1.40;;
20375;SDS011;10347;51.828;6.466;2022-10-16T06:47:12;1.52;;;1.40;;
20375;SDS011;10347;51.828;6.466;2022-10-16T06:49:38;2.95;;;1.58;;
20375;SDS011;10347;51.828;6.466;2022-10-16T06:52:03;1.40;;;1.30;;
20375;SDS011;10347;51.828;6.466;2022-10-16T06:54:29;1.40;;;1.30;;
20375;SDS011;10347;51.828;6.466;2022-10-16T06:56:55;1.38;;;1.20;;
20375;SDS011;10347;51.828;6.466;2022-10-16T06:59:21;2.78;;;1.70;;
20375;SDS011;10347;51.828;6.466;2022-10-16T07:01:47;1.75;;;1.65;;
20375;SDS011;10347;51.828;6.466;2022-10-16T07:04:12;1.50;;;1.40;;
20375;SDS011;10347;51.828;6.466;2022-10-16T07:06:38;1.50;;;1.40;;
20375;SDS011;10347;51.828;6.466;2022-10-16T07:09:06;1.80;;;1.55;;
20375;SDS011;10347;51.828;6.466;2022-10-16T07:11:33;1.27;;;1.27;;
20375;SDS011;10347;51.828;6.466;2022-10-16T07:13:59;2.70;;;1.70;;
20375;SDS011;10347;51.828;6.466;2022-10-16T07:16:26;1.88;;;1.77;;
20375;SDS011;10347;51.828;6.466;2022-10-16T07:18:53;1.40;;;1.30;;
20375;SDS011;10347;51.828;6.466;2022-10-16T07:21:23;1.83;;;1.40;;
20375;SDS011;10347;51.828;6.466;2022-10-16T07:23:54;2.72;;;1.77;;
20375;SDS011;10347;51.828;6.466;2022-10-16T07:26:21;2.10;;;1.70;;
20375;SDS011;10347;51.828;6.466;2022-10-16T07:28:47;1.33;;;1.23;;
20375;SDS011;10347;51.828;6.466;2022-10-16T07:31:13;2.30;;;1.50;;
20375;SDS011;10347;51.828;6.466;2022-10-16T07:33:40;1.63;;;1.50;;
20375;SDS011;10347;51.828;6.466;2022-10-16T07:36:09;1.70;;;1.60;;
20375;SDS011;10347;51.828;6.466;2022-10-16T07:38:35;1.67;;;1.50;;
20375;SDS011;10347;51.828;6.466;2022-10-16T07:41:02;1.88;;;1.42;;
20375;SDS011;10347;51.828;6.466;2022-10-16T07:43:29;2.15;;;1.77;;
20375;SDS011;10347;51.828;6.466;2022-10-16T07:45:55;4.28;;;1.88;;
20375;SDS011;10347;51.828;6.466;2022-10-16T07:48:22;1.95;;;1.60;;
20375;SDS011;10347;51.828;6.466;2022-10-16T07:50:49;5.13;;;1.70;;
20375;SDS011;10347;51.828;6.466;2022-10-16T07:53:15;1.98;;;1.70;;
20375;SDS011;10347;51.828;6.466;2022-10-16T07:55:40;1.75;;;1.65;;
20375;SDS011;10347;51.828;6.466;2022-10-16T07:58:06;1.63;;;1.50;;
20375;SDS011;10347;51.828;6.466;2022-10-16T08:00:32;3.40;;;1.65;;
20375;SDS011;10347;51.828;6.466;2022-10-16T08:02:59;1.70;;;1.60;;
20375;SDS011;10347;51.828;6.466;2022-10-16T08:05:28;3.28;;;1.77;;
20375;SDS011;10347;51.828;6.466;2022-10-16T08:07:55;3.20;;;1.90;;
20375;SDS011;10347;51.828;6.466;2022-10-16T08:10:21;2.80;;;1.73;;
20375;SDS011;10347;51.828;6.466;2022-10-16T08:12:49;3.60;;;1.65;;
20375;SDS011;10347;51.828;6.466;2022-10-16T08:15:15;1.45;;;1.35;;
20375;SDS011;10347;51.828;6.466;2022-10-16T08:17:41;3.78;;;1.50;;
20375;SDS011;10347;51.828;6.466;2022-10-16T08:20:07;2.08;;;1.55;;
20375;SDS011;10347;51.828;6.466;2022-10-16T08:22:33;2.88;;;1.80;;
20375;SDS011;10347;51.828;6.466;2022-10-16T08:24:59;1.70;;;1.60;;
20375;SDS011;10347;51.828;6.466;2022-10-16T08:27:24;2.60;;;1.80;;
20375;SDS011;10347;51.828;6.466;2022-10-16T08:29:53;3.83;;;1.90;;
20375;SDS011;10347;51.828;6.466;2022-10-16T08:32:19;3.03;;;1.80;;
20375;SDS011;10347;51.828;6.466;2022-10-16T08:34:44;3.65;;;2.00;;
20375;SDS011;10347;51.828;6.466;2022-10-16T08:37:10;2.13;;;1.85;;
20375;SDS011;10347;51.828;6.466;2022-10-16T08:39:38;4.43;;;2.13;;
20375;SDS011;10347;51.828;6.466;2022-10-16T08:42:10;2.10;;;1.75;;
20375;SDS011;10347;51.828;6.466;2022-10-16T08:45:00;2.95;;;1.80;;
20375;SDS011;10347;51.828;6.466;2022-10-16T08:50:30;2.80;;;1.85;;
20375;SDS011;10347;51.828;6.466;2022-10-16T08:52:57;1.80;;;1.70;;
20375;SDS011;10347;51.828;6.466;2022-10-16T08:58:12;3.40;;;1.77;;
20375;SDS011;10347;51.828;6.466;2022-10-16T09:00:39;2.38;;;1.80;;
20375;SDS011;10347;51.828;6.466;2022-10-16T09:03:17;1.63;;;1.52;;
20375;SDS011;10347;51.828;6.466;2022-10-16T09:06:14;2.63;;;1.95;;
20375;SDS011;10347;51.828;6.466;2022-10-16T09:14:38;2.10;;;1.80;;
20375;SDS011;10347;51.828;6.466;2022-10-16T09:19:45;1.63;;;1.52;;
20375;SDS011;10347;51.828;6.466;2022-10-16T09:22:16;3.08;;;2.00;;
20375;SDS011;10347;51.828;6.466;2022-10-16T09:24:45;3.08;;;1.70;;
20375;SDS011;10347;51.828;6.466;2022-10-16T09:27:11;3.30;;;1.70;;
20375;SDS011;10347;51.828;6.466;2022-10-16T09:29:39;3.28;;;1.92;;
20375;SDS011;10347;51.828;6.466;2022-10-16T09:32:12;2.10;;;1.65;;
20375;SDS011;10347;51.828;6.466;2022-10-16T09:34:45;1.60;;;1.50;;
20375;SDS011;10347;51.828;6.466;2022-10-16T09:37:18;1.85;;;1.38;;
20375;SDS011;10347;51.828;6.466;2022-10-16T09:44:52;1.77;;;1.38;;
20375;SDS011;10347;51.828;6.466;2022-10-16T09:47:28;2.35;;;1.73;;
20375;SDS011;10347;51.828;6.466;2022-10-16T09:49:59;2.65;;;1.50;;
20375;SDS011;10347;51.828;6.466;2022-10-16T09:52:40;3.65;;;1.40;;
20375;SDS011;10347;51.828;6.466;2022-10-16T09:55:14;2.60;;;1.40;;
20375;SDS011;10347;51.828;6.466;2022-10-16T09:57:50;3.92;;;1.40;;
20375;SDS011;10347;51.828;6.466;2022-10-16T10:00:17;2.40;;;1.48;;
20375;SDS011;10347;51.828;6.466;2022-10-16T10:02:43;2.55;;;1.58;;
20375;SDS011;10347;51.828;6.466;2022-10-16T10:05:20;2.72;;;1.65;;
20375;SDS011;10347;51.828;6.466;2022-10-16T10:07:57;1.77;;;1.08;;
20375;SDS011;10347;51.828;6.466;2022-10-16T10:10:28;1.50;;;1.23;;
20375;SDS011;10347;51.828;6.466;2022-10-16T10:12:55;3.97;;;1.60;;
20375;SDS011;10347;51.828;6.466;2022-10-16T10:15:21;7.20;;;1.60;;
20375;SDS011;10347;51.828;6.466;2022-10-16T10:17:50;2.15;;;1.30;;
20375;SDS011;10347;51.828;6.466;2022-10-16T10:20:28;5.05;;;1.70;;
20375;SDS011;10347;51.828;6.466;2022-10-16T10:22:54;5.90;;;1.55;;
20375;SDS011;10347;51.828;6.466;2022-10-16T10:45:25;3.75;;;1.45;;
20375;SDS011;10347;51.828;6.466;2022-10-16T10:56:20;3.17;;;1.48;;
20375;SDS011;10347;51.828;6.466;2022-10-16T11:02:10;5.85;;;1.38;;
20375;SDS011;10347;51.828;6.466;2022-10-16T11:05:10;1.98;;;1.42;;
20375;SDS011;10347;51.828;6.466;2022-10-16T11:07:58;3.53;;;1.42;;
20375;SDS011;10347;51.828;6.466;2022-10-16T11:10:28;4.05;;;1.48;;
20375;SDS011;10347;51.828;6.466;2022-10-16T11:13:23;2.55;;;1.40;;
20375;SDS011;10347;51.828;6.466;2022-10-16T11:15:57;5.00;;;1.50;;
20375;SDS011;10347;51.828;6.466;2022-10-16T11:21:08;3.88;;;1.50;;
20375;SDS011;10347;51.828;6.466;2022-10-16T11:26:09;8.18;;;2.15;;
20375;SDS011;10347;51.828;6.466;2022-10-16T11:28:43;6.13;;;1.90;;
20375;SDS011;10347;51.828;6.466;2022-10-16T11:31:57;6.15;;;1.75;;
20375;SDS011;10347;51.828;6.466;2022-10-16T11:34:19;4.88;;;1.70;;
20375;SDS011;10347;51.828;6.466;2022-10-16T11:39:28;2.53;;;1.67;;
20375;SDS011;10347;51.828;6.466;2022-10-16T11:42:00;4.93;;;1.98;;
20375;SDS011;10347;51.828;6.466;2022-10-16T11:47:33;5.18;;;1.50;;
20375;SDS011;10347;51.828;6.466;2022-10-16T11:50:02;5.60;;;1.65;;
20375;SDS011;10347;51.828;6.466;2022-10-16T11:55:34;4.05;;;1.50;;
20375;SDS011;10347;51.828;6.466;2022-10-16T12:03:43;3.13;;;1.33;;
20375;SDS011;10347;51.828;6.466;2022-10-16T12:06:30;4.03;;;1.48;;
20375;SDS011;10347;51.828;6.466;2022-10-16T12:08:58;2.67;;;1.50;;
20375;SDS011;10347;51.828;6.466;2022-10-16T12:16:37;3.63;;;1.35;;
20375;SDS011;10347;51.828;6.466;2022-10-16T12:19:15;5.18;;;1.58;;
20375;SDS011;10347;51.828;6.466;2022-10-16T12:21:42;4.28;;;1.40;;
20375;SDS011;10347;51.828;6.466;2022-10-16T12:26:56;4.05;;;1.35;;
20375;SDS011;10347;51.828;6.466;2022-10-16T12:32:05;8.55;;;1.65;;
20375;SDS011;10347;51.828;6.466;2022-10-16T12:34:48;8.40;;;2.30;;
20375;SDS011;10347;51.828;6.466;2022-10-16T12:37:27;7.70;;;1.88;;
20375;SDS011;10347;51.828;6.466;2022-10-16T12:40:11;5.38;;;1.50;;
20375;SDS011;10347;51.828;6.466;2022-10-16T12:42:38;5.63;;;1.60;;
20375;SDS011;10347;51.828;6.466;2022-10-16T12:47:56;5.78;;;1.63;;
20375;SDS011;10347;51.828;6.466;2022-10-16T12:50:31;2.70;;;1.25;;
20375;SDS011;10347;51.828;6.466;2022-10-16T12:52:59;7.35;;;1.60;;
20375;SDS011;10347;51.828;6.466;2022-10-16T12:55:26;4.50;;;1.60;;
20375;SDS011;10347;51.828;6.466;2022-10-16T12:58:09;7.07;;;1.83;;
20375;SDS011;10347;51.828;6.466;2022-10-16T13:00:50;5.75;;;1.70;;
20375;SDS011;10347;51.828;6.466;2022-10-16T13:19:29;5.35;;;1.33;;
20375;SDS011;10347;51.828;6.466;2022-10-16T13:29:39;5.22;;;1.30;;
20375;SDS011;10347;51.828;6.466;2022-10-16T13:32:07;7.18;;;1.83;;
20375;SDS011;10347;51.828;6.466;2022-10-16T13:34:44;7.60;;;1.85;;
20375;SDS011;10347;51.828;6.466;2022-10-16T13:37:17;4.97;;;1.33;;
20375;SDS011;10347;51.828;6.466;2022-10-16T13:39:44;4.90;;;1.40;;
20375;SDS011;10347;51.828;6.466;2022-10-16T13:42:11;2.17;;;1.27;;
20375;SDS011;10347;51.828;6.466;2022-10-16T13:44:54;3.20;;;1.50;;
20375;SDS011;10347;51.828;6.466;2022-10-16T13:47:22;4.30;;;1.35;;
20375;SDS011;10347;51.828;6.466;2022-10-16T13:49:59;3.05;;;1.10;;
20375;SDS011;10347;51.828;6.466;2022-10-16T13:52:29;2.40;;;0.95;;
20375;SDS011;10347;51.828;6.466;2022-10-16T13:54:54;1.63;;;1.00;;
20375;SDS011;10347;51.828;6.466;2022-10-16T13:57:22;2.42;;;1.10;;
20375;SDS011;10347;51.828;6.466;2022-10-16T13:59:49;1.35;;;1.05;;
20375;SDS011;10347;51.828;6.466;2022-10-16T14:02:22;5.22;;;1.55;;
20375;SDS011;10347;51.828;6.466;2022-10-16T14:04:51;2.83;;;1.20;;
20375;SDS011;10347;51.828;6.466;2022-10-16T14:07:24;2.63;;;1.42;;
20375;SDS011;10347;51.828;6.466;2022-10-16T14:09:53;1.10;;;1.00;;
20375;SDS011;10347;51.828;6.466;2022-10-16T14:12:19;2.03;;;1.00;;
20375;SDS011;10347;51.828;6.466;2022-10-16T14:14:47;3.58;;;1.27;;
20375;SDS011;10347;51.828;6.466;2022-10-16T14:17:18;1.73;;;1.13;;
20375;SDS011;10347;51.828;6.466;2022-10-16T14:19:47;3.08;;;1.00;;
20375;SDS011;10347;51.828;6.466;2022-10-16T14:22:57;1.67;;;1.13;;
20375;SDS011;10347;51.828;6.466;2022-10-16T14:27:46;4.22;;;1.10;;
20375;SDS011;10347;51.828;6.466;2022-10-16T14:30:26;2.00;;;0.93;;
20375;SDS011;10347;51.828;6.466;2022-10-16T14:32:53;3.38;;;1.23;;
20375;SDS011;10347;51.828;6.466;2022-10-16T14:35:27;2.40;;;1.13;;
20375;SDS011;10347;51.828;6.466;2022-10-16T14:37:58;2.55;;;1.10;;
20375;SDS011;10347;51.828;6.466;2022-10-16T14:40:26;1.38;;;0.90;;
20375;SDS011;10347;51.828;6.466;2022-10-16T14:43:03;2.28;;;0.93;;
20375;SDS011;10347;51.828;6.466;2022-10-16T14:45:30;3.70;;;0.93;;
20375;SDS011;10347;51.828;6.466;2022-10-16T14:48:01;1.85;;;0.85;;
20375;SDS011;10347;51.828;6.466;2022-10-16T14:50:31;2.17;;;1.05;;
20375;SDS011;10347;51.828;6.466;2022-10-16T14:52:56;1.88;;;1.00;;
20375;SDS011;10347;51.828;6.466;2022-10-16T14:55:23;2.85;;;1.38;;
20375;SDS011;10347;51.828;6.466;2022-10-16T14:57:50;8.48;;;1.27;;
20375;SDS011;10347;51.828;6.466;2022-10-16T15:00:20;1.48;;;0.98;;
20375;SDS011;10347;51.828;6.466;2022-10-16T15:02:48;2.45;;;1.33;;
20375;SDS011;10347;51.828;6.466;2022-10-16T15:05:21;1.27;;;1.00;;
20375;SDS011;10347;51.828;6.466;2022-10-16T15:07:51;2.67;;;1.00;;
20375;SDS011;10347;51.828;6.466;2022-10-16T15:10:18;0.93;;;0.90;;
20375;SDS011;10347;51.828;6.466;2022-10-16T15:12:46;0.70;;;0.70;;
20375;SDS011;10347;51.828;6.466;2022-10-16T15:15:20;2.45;;;1.00;;
20375;SDS011;10347;51.828;6.466;2022-10-16T15:17:55;2.17;;;1.00;;
20375;SDS011;10347;51.828;6.466;2022-10-16T15:20:25;2.20;;;0.85;;
20375;SDS011;10347;51.828;6.466;2022-10-16T15:22:56;2.60;;;1.00;;
20375;SDS011;10347;51.828;6.466;2022-10-16T15:25:32;2.72;;;1.20;;
20375;SDS011;10347;51.828;6.466;2022-10-16T15:28:02;1.63;;;1.48;;
20375;SDS011;10347;51.828;6.466;2022-10-16T15:30:29;4.07;;;2.03;;
20375;SDS011;10347;51.828;6.466;2022-10-16T15:32:55;1.50;;;1.30;;
20375;SDS011;10347;51.828;6.466;2022-10-16T15:35:21;2.30;;;1.35;;
20375;SDS011;10347;51.828;6.466;2022-10-16T15:37:47;1.77;;;1.30;;
20375;SDS011;10347;51.828;6.466;2022-10-16T15:40:13;1.00;;;0.90;;
20375;SDS011;10347;51.828;6.466;2022-10-16T15:42:39;3.78;;;1.20;;
20375;SDS011;10347;51.828;6.466;2022-10-16T15:45:05;2.47;;;1.10;;
20375;SDS011;10347;51.828;6.466;2022-10-16T15:47:31;1.45;;;0.80;;
20375;SDS011;10347;51.828;6.466;2022-10-16T15:49:57;1.80;;;0.90;;
20375;SDS011;10347;51.828;6.466;2022-10-16T15:52:23;2.33;;;1.08;;
20375;SDS011;10347;51.828;6.466;2022-10-16T15:54:48;2.13;;;0.98;;
20375;SDS011;10347;51.828;6.466;2022-10-16T15:57:14;1.63;;;1.00;;
20375;SDS011;10347;51.828;6.466;2022-10-16T15:59:39;1.80;;;1.08;;
20375;SDS011;10347;51.828;6.466;2022-10-16T16:02:05;0.88;;;0.80;;
20375;SDS011;10347;51.828;6.466;2022-10-16T16:04:30;2.40;;;0.95;;
20375;SDS011;10347;51.828;6.466;2022-10-16T16:06:56;3.65;;;1.20;;
20375;SDS011;10347;51.828;6.466;2022-10-16T16:09:22;1.13;;;1.02;;
20375;SDS011;10347;51.828;6.466;2022-10-16T16:11:48;3.47;;;1.40;;
20375;SDS011;10347;51.828;6.466;2022-10-16T16:14:14;1.77;;;1.20;;
20375;SDS011;10347;51.828;6.466;2022-10-16T16:16:40;1.35;;;1.17;;
20375;SDS011;10347;51.828;6.466;2022-10-16T16:19:07;2.70;;;1.40;;
20375;SDS011;10347;51.828;6.466;2022-10-16T16:21:33;2.58;;;1.60;;
20375;SDS011;10347;51.828;6.466;2022-10-16T16:23:59;2.20;;;1.30;;
20375;SDS011;10347;51.828;6.466;2022-10-16T16:28:52;1.23;;;1.13;;
20375;SDS011;10347;51.828;6.466;2022-10-16T16:31:18;1.33;;;1.23;;
20375;SDS011;10347;51.828;6.466;2022-10-16T16:33:44;2.53;;;1.35;;
20375;SDS011;10347;51.828;6.466;2022-10-16T16:36:10;2.55;;;1.60;;
20375;SDS011;10347;51.828;6.466;2022-10-16T16:38:36;1.20;;;1.10;;
20375;SDS011;10347;51.828;6.466;2022-10-16T16:41:12;1.88;;;1.35;;
20375;SDS011;10347;51.828;6.466;2022-10-16T16:43:44;2.10;;;1.40;;
20375;SDS011;10347;51.828;6.466;2022-10-16T16:46:12;2.67;;;1.48;;
20375;SDS011;10347;51.828;6.466;2022-10-16T16:48:39;3.60;;;1.17;;
20375;SDS011;10347;51.828;6.466;2022-10-16T16:51:15;2.33;;;1.38;;
20375;SDS011;10347;51.828;6.466;2022-10-16T16:53:43;2.10;;;1.30;;
20375;SDS011;10347;51.828;6.466;2022-10-16T16:56:10;5.38;;;1.40;;
20375;SDS011;10347;51.828;6.466;2022-10-16T16:58:36;2.55;;;1.40;;
20375;SDS011;10347;51.828;6.466;2022-10-16T17:01:02;2.40;;;1.40;;
20375;SDS011;10347;51.828;6.466;2022-10-16T17:03:29;2.72;;;1.30;;
20375;SDS011;10347;51.828;6.466;2022-10-16T17:05:56;3.38;;;1.40;;
20375;SDS011;10347;51.828;6.466;2022-10-16T17:08:23;1.50;;;1.10;;
20375;SDS011;10347;51.828;6.466;2022-10-16T17:10:49;2.13;;;1.45;;